Terminal Aerodrome Forecast
Issued by NWS Birmingham, AL

Current Version | Previous Version | Text Only | Print | Product List | Glossary On
Versions: 1 2 3 4 5 6 7 8 9 10 11 12 13 14 15 16
000
FTUS44 KBMX 290220 AAA
TAFBHM
TAF AMD
KBHM 290220Z 2902/2924 16008KT P6SM SCT060 SCT250
     FM290900 16008KT P6SM BKN015 OVC030
      TEMPO 2910/2912 BKN008 OVC020
     FM291400 16014G23KT P6SM SCT040 SCT250=

USA.gov is the U.S. government's official web portal to all federal, state and local government web resources and services.